createdAt,value
2023-04-29T00:01:40.014Z,3.22
2023-04-29T00:04:08.152Z,2.45
2023-04-29T00:06:35.566Z,2.53
2023-04-29T00:09:04.386Z,2.65
2023-04-29T00:11:31.686Z,2.78
2023-04-29T00:13:59.165Z,3.30
2023-04-29T00:16:27.589Z,2.67
2023-04-29T00:18:55.237Z,2.97
2023-04-29T00:21:22.729Z,2.70
2023-04-29T00:23:49.946Z,2.65
2023-04-29T00:26:17.127Z,2.88
2023-04-29T00:28:47.267Z,3.95
2023-04-29T00:31:14.853Z,3.55
2023-04-29T00:33:42.721Z,3.88
2023-04-29T00:36:10.176Z,2.90
2023-04-29T00:38:37.445Z,2.97
2023-04-29T00:41:04.959Z,2.75
2023-04-29T00:43:32.231Z,2.92
2023-04-29T00:45:59.705Z,3.40
2023-04-29T00:48:26.964Z,2.97
2023-04-29T00:50:54.174Z,4.05
2023-04-29T00:53:23.378Z,3.58
2023-04-29T00:55:52.097Z,3.72
2023-04-29T00:58:20.187Z,3.22
2023-04-29T01:00:49.636Z,3.75
2023-04-29T01:03:17.007Z,3.90
2023-04-29T01:05:52.303Z,3.90
2023-04-29T01:08:43.620Z,4.13
2023-04-29T01:11:13.061Z,3.75
2023-04-29T01:13:54.584Z,3.70
2023-04-29T01:16:48.901Z,3.72
2023-04-29T01:19:57.075Z,3.75
2023-04-29T01:22:24.787Z,4.45
2023-04-29T01:24:52.145Z,3.78
2023-04-29T01:27:39.857Z,3.85
2023-04-29T01:30:57.160Z,4.20
2023-04-29T01:33:40.984Z,3.88
2023-04-29T01:36:31.470Z,3.95
2023-04-29T01:39:26.597Z,5.00
2023-04-29T01:42:29.882Z,4.32
2023-04-29T01:45:03.470Z,3.83
2023-04-29T01:47:31.135Z,4.30
2023-04-29T01:49:58.467Z,4.03
2023-04-29T01:52:25.731Z,4.57
2023-04-29T01:54:57.510Z,5.05
2023-04-29T01:57:27.297Z,4.15
2023-04-29T02:00:05.730Z,4.85
2023-04-29T02:02:45.452Z,3.90
2023-04-29T02:05:22.780Z,4.45
2023-04-29T02:07:56.851Z,3.58
2023-04-29T02:10:24.362Z,4.20
2023-04-29T02:12:59.911Z,4.32
2023-04-29T02:15:28.849Z,3.72
2023-04-29T02:17:56.301Z,4.07
2023-04-29T02:20:23.793Z,3.90
2023-04-29T02:22:51.541Z,4.00
2023-04-29T02:25:18.880Z,3.45
2023-04-29T02:27:46.101Z,3.78
2023-04-29T02:30:13.318Z,4.13
2023-04-29T02:32:41.417Z,4.00
2023-04-29T02:35:09.230Z,4.32
2023-04-29T02:37:36.370Z,3.75
2023-04-29T02:40:03.978Z,4.40
2023-04-29T02:42:31.585Z,3.92
2023-04-29T02:45:01.572Z,4.43
2023-04-29T02:47:28.943Z,4.03
2023-04-29T02:49:56.187Z,3.83
2023-04-29T02:52:23.464Z,4.43
2023-04-29T02:54:50.890Z,3.55
2023-04-29T02:57:18.558Z,3.35
2023-04-29T02:59:45.876Z,3.60
2023-04-29T03:02:13.089Z,3.78
2023-04-29T03:04:41.126Z,4.30
2023-04-29T03:07:08.419Z,3.55
2023-04-29T03:09:37.108Z,3.80
2023-04-29T03:12:04.930Z,4.35
2023-04-29T03:14:32.237Z,4.43
2023-04-29T03:16:59.746Z,4.15
2023-04-29T03:19:27.005Z,4.30
2023-04-29T03:21:54.275Z,4.38
2023-04-29T03:24:22.189Z,4.15
2023-04-29T03:26:49.390Z,4.53
2023-04-29T03:29:19.615Z,3.85
2023-04-29T03:31:47.680Z,4.18
2023-04-29T03:34:15.410Z,4.20
2023-04-29T03:36:48.563Z,4.55
2023-04-29T03:39:15.821Z,4.05
2023-04-29T03:41:43.486Z,3.33
2023-04-29T03:44:10.904Z,4.30
2023-04-29T03:46:39.717Z,4.07
2023-04-29T03:49:06.959Z,3.65
2023-04-29T03:51:34.480Z,3.85
2023-04-29T03:54:14.048Z,4.65
2023-04-29T03:56:41.764Z,4.30
2023-04-29T03:59:09.516Z,3.58
2023-04-29T04:01:38.440Z,4.28
2023-04-29T04:04:05.909Z,4.13
2023-04-29T04:06:33.816Z,4.43
2023-04-29T04:09:01.142Z,4.30
2023-04-29T04:11:30.750Z,4.50
2023-04-29T04:14:01.150Z,4.53
2023-04-29T04:16:28.727Z,4.32
2023-04-29T04:18:56.030Z,4.45
2023-04-29T04:21:23.672Z,4.47
2023-04-29T04:24:00.973Z,4.72
2023-04-29T04:26:29.684Z,4.50
2023-04-29T04:29:08.139Z,4.38
2023-04-29T04:31:49.636Z,4.35
2023-04-29T04:34:18.914Z,4.07
2023-04-29T04:36:48.673Z,4.43
2023-04-29T04:39:16.037Z,3.78
2023-04-29T04:41:43.486Z,5.10
2023-04-29T04:44:10.964Z,4.35
2023-04-29T04:46:52.268Z,3.72
2023-04-29T04:49:34.536Z,4.88
2023-04-29T04:52:02.153Z,3.90
2023-04-29T04:54:29.381Z,4.07
2023-04-29T04:57:06.350Z,3.55
2023-04-29T04:59:34.515Z,3.60
2023-04-29T05:02:02.060Z,3.90
2023-04-29T05:04:29.916Z,3.80
2023-04-29T05:06:57.344Z,4.20
2023-04-29T05:09:27.649Z,4.45
2023-04-29T05:11:56.132Z,3.40
2023-04-29T05:14:23.517Z,3.72
2023-04-29T05:16:51.642Z,3.75
2023-04-29T05:19:20.174Z,4.43
2023-04-29T05:21:47.391Z,3.80
2023-04-29T05:24:15.398Z,4.50
2023-04-29T05:26:44.143Z,4.10
2023-04-29T05:29:12.290Z,3.80
2023-04-29T05:31:51.487Z,4.15
2023-04-29T05:34:18.890Z,4.40
2023-04-29T05:36:46.692Z,4.05
2023-04-29T05:39:14.076Z,4.47
2023-04-29T05:41:42.405Z,4.30
2023-04-29T05:44:17.381Z,4.38
2023-04-29T05:46:48.849Z,3.80
2023-04-29T05:49:16.830Z,4.00
2023-04-29T05:51:44.265Z,4.20
2023-04-29T05:54:11.504Z,4.15
2023-04-29T05:56:38.841Z,5.65
2023-04-29T05:59:06.041Z,4.10
2023-04-29T06:01:33.832Z,3.58
2023-04-29T06:04:01.702Z,4.32
2023-04-29T06:07:02.627Z,3.88
2023-04-29T06:09:48.722Z,3.58
2023-04-29T06:12:16.418Z,3.47
2023-04-29T06:14:46.355Z,4.38
2023-04-29T06:17:14.148Z,3.78
2023-04-29T06:19:42.231Z,3.78
2023-04-29T06:22:10.528Z,3.28
2023-04-29T06:24:40.625Z,3.78
2023-04-29T06:27:09.230Z,3.65
2023-04-29T06:29:37.677Z,3.20
2023-04-29T06:32:05.288Z,3.15
2023-04-29T06:34:33.083Z,3.17
2023-04-29T06:37:29.723Z,3.38
2023-04-29T06:40:26.383Z,4.22
2023-04-29T06:43:20.090Z,4.43
2023-04-29T06:46:08.671Z,3.47
2023-04-29T06:48:40.767Z,3.50
2023-04-29T06:51:08.358Z,3.55
2023-04-29T06:53:37.676Z,3.20
2023-04-29T06:56:05.779Z,3.13
2023-04-29T06:58:33.139Z,2.58
2023-04-29T07:01:01.207Z,2.92
2023-04-29T07:03:28.736Z,2.90
2023-04-29T07:05:57.739Z,2.60
2023-04-29T07:08:25.326Z,3.10
2023-04-29T07:10:57.763Z,2.97
2023-04-29T07:13:26.138Z,3.30
2023-04-29T07:15:53.472Z,3.15
2023-04-29T07:18:20.934Z,2.75
2023-04-29T07:20:48.558Z,2.90
2023-04-29T07:23:16.086Z,2.67
2023-04-29T07:25:43.428Z,2.53
2023-04-29T07:28:10.692Z,2.47
2023-04-29T07:30:38.728Z,3.30
2023-04-29T07:33:06.217Z,2.80
2023-04-29T07:35:34.418Z,2.75
2023-04-29T07:38:01.949Z,2.55
2023-04-29T07:40:31.983Z,2.97
2023-04-29T07:42:59.617Z,2.88
2023-04-29T07:45:26.929Z,3.20
2023-04-29T07:47:54.366Z,2.92
2023-04-29T07:50:22.759Z,3.05
2023-04-29T07:52:50.134Z,3.28
2023-04-29T07:55:17.857Z,3.40
2023-04-29T07:57:45.184Z,3.05
2023-04-29T08:00:13.125Z,2.80
2023-04-29T08:02:44.050Z,3.13
2023-04-29T08:05:14.407Z,2.60
2023-04-29T08:07:41.919Z,2.67
2023-04-29T08:10:09.919Z,3.17
2023-04-29T08:12:38.025Z,2.55
2023-04-29T08:15:07.801Z,2.80
2023-04-29T08:17:37.622Z,3.22
2023-04-29T08:20:05.911Z,2.90
2023-04-29T08:22:33.832Z,2.90
2023-04-29T08:25:03.227Z,3.40
2023-04-29T08:27:31.186Z,2.67
2023-04-29T08:29:58.727Z,3.78
2023-04-29T08:32:26.135Z,2.90
2023-04-29T08:34:53.707Z,2.50
2023-04-29T08:37:21.187Z,4.13
2023-04-29T08:39:49.114Z,2.95
2023-04-29T08:42:21.250Z,3.70
2023-04-29T08:44:50.308Z,3.05
2023-04-29T08:47:18.146Z,2.90
2023-04-29T08:49:45.576Z,3.95
2023-04-29T08:52:13.077Z,3.60
2023-04-29T08:54:41.552Z,4.10
2023-04-29T08:57:12.166Z,4.05
2023-04-29T08:59:39.577Z,3.75
2023-04-29T09:02:13.239Z,4.13
2023-04-29T09:04:52.719Z,3.95
2023-04-29T09:07:20.612Z,3.50
2023-04-29T09:09:49.680Z,3.72
2023-04-29T09:12:17.021Z,3.15
2023-04-29T09:14:44.516Z,3.30
2023-04-29T09:17:11.850Z,4.63
2023-04-29T09:19:39.230Z,7.55
2023-04-29T09:22:08.294Z,4.35
2023-04-29T09:24:35.936Z,3.78
2023-04-29T09:27:04.627Z,7.57
2023-04-29T09:29:33.253Z,10.70
2023-04-29T09:32:00.909Z,5.18
2023-04-29T09:34:37.495Z,3.65
2023-04-29T09:37:05.249Z,3.70
2023-04-29T09:39:40.132Z,3.25
2023-04-29T09:42:09.128Z,3.05
2023-04-29T09:44:36.504Z,3.95
2023-04-29T09:47:09.191Z,3.00
2023-04-29T09:49:41.209Z,3.10
2023-04-29T09:52:15.116Z,2.80
2023-04-29T09:54:44.460Z,3.17
2023-04-29T09:57:15.850Z,3.33
2023-04-29T09:59:43.679Z,3.13
2023-04-29T10:02:16.167Z,3.80
2023-04-29T10:04:47.804Z,3.80
2023-04-29T10:07:20.325Z,3.33
2023-04-29T10:09:49.130Z,3.42
2023-04-29T10:12:21.092Z,3.92
2023-04-29T10:15:04.388Z,4.00
2023-04-29T10:17:52.997Z,3.97
2023-04-29T10:20:25.501Z,4.35
2023-04-29T10:22:56.715Z,5.05
2023-04-29T10:25:26.306Z,5.47
2023-04-29T10:27:55.323Z,6.20
2023-04-29T10:30:23.171Z,6.50
2023-04-29T10:32:52.783Z,7.25
2023-04-29T10:35:25.672Z,8.05
2023-04-29T10:37:54.320Z,7.63
2023-04-29T10:40:40.419Z,8.65
2023-04-29T10:43:07.874Z,8.75
2023-04-29T10:45:36.460Z,8.43
2023-04-29T10:48:06.689Z,8.65
2023-04-29T10:51:03.555Z,9.25
2023-04-29T10:53:31.290Z,8.05
2023-04-29T10:56:11.335Z,9.05
2023-04-29T10:58:46.811Z,9.15
2023-04-29T11:01:18.108Z,8.98
2023-04-29T11:03:58.943Z,9.32
2023-04-29T11:06:41.584Z,8.75
2023-04-29T11:09:22.598Z,9.02
2023-04-29T11:11:56.423Z,8.68
2023-04-29T11:14:43.383Z,10.30
2023-04-29T11:17:16.732Z,9.48
2023-04-29T11:19:50.453Z,9.00
2023-04-29T11:22:24.240Z,9.23
2023-04-29T11:25:01.035Z,8.63
2023-04-29T11:27:33.332Z,8.82
2023-04-29T11:30:03.924Z,7.85
2023-04-29T11:32:37.111Z,8.23
2023-04-29T11:35:16.155Z,8.00
2023-04-29T11:37:45.935Z,7.53
2023-04-29T11:40:14.832Z,7.85
2023-04-29T11:42:46.589Z,7.82
2023-04-29T11:45:15.271Z,7.07
2023-04-29T11:47:48.051Z,7.90
2023-04-29T11:50:19.299Z,6.65
2023-04-29T11:52:48.479Z,5.00
2023-04-29T11:55:16.070Z,6.70
2023-04-29T11:57:43.925Z,7.15
2023-04-29T12:00:13.748Z,9.13
2023-04-29T12:02:46.481Z,8.02
2023-04-29T12:05:15.843Z,7.32
2023-04-29T12:07:43.780Z,8.00
2023-04-29T12:10:12.612Z,8.70
2023-04-29T12:12:47.566Z,8.65
2023-04-29T12:15:15.526Z,8.13
2023-04-29T12:17:43.944Z,6.32
2023-04-29T12:20:12.869Z,7.90
2023-04-29T12:22:43.617Z,7.63
2023-04-29T12:25:11.513Z,7.28
2023-04-29T12:27:44.245Z,7.60
2023-04-29T12:30:12.952Z,6.88
2023-04-29T12:32:41.052Z,7.03
2023-04-29T12:35:19.417Z,5.70
2023-04-29T12:37:52.836Z,5.47
2023-04-29T12:40:21.076Z,5.20
2023-04-29T12:42:49.032Z,6.07
2023-04-29T12:45:34.134Z,4.80
2023-04-29T12:48:03.323Z,5.57
2023-04-29T12:50:38.869Z,5.65
2023-04-29T12:53:08.256Z,5.90
2023-04-29T12:55:37.581Z,5.33
2023-04-29T12:58:06.015Z,5.28
2023-04-29T13:00:35.066Z,4.82
2023-04-29T13:03:02.659Z,4.63
2023-04-29T13:05:30.069Z,4.43
2023-04-29T13:07:57.691Z,4.88
2023-04-29T13:10:25.051Z,4.53
2023-04-29T13:12:52.277Z,4.53
2023-04-29T13:15:19.793Z,4.43
2023-04-29T13:17:47.341Z,4.18
2023-04-29T13:20:15.419Z,5.05
2023-04-29T13:22:43.699Z,3.15
2023-04-29T13:25:16.384Z,3.03
2023-04-29T13:27:44.321Z,5.03
2023-04-29T13:30:12.150Z,4.55
2023-04-29T13:32:45.000Z,4.55
2023-04-29T13:35:18.782Z,3.03
2023-04-29T13:37:46.672Z,3.00
2023-04-29T13:40:20.362Z,2.53
2023-04-29T13:42:50.462Z,2.28
2023-04-29T13:45:24.262Z,1.45
2023-04-29T13:50:54.046Z,1.67
2023-04-29T13:56:34.822Z,1.60
2023-04-29T14:03:27.593Z,1.65
2023-04-29T14:05:55.079Z,1.63
2023-04-29T14:08:22.306Z,1.10
2023-04-29T14:10:49.587Z,1.30
2023-04-29T14:13:17.800Z,1.33
2023-04-29T14:15:44.988Z,0.95
2023-04-29T14:18:12.552Z,0.85
2023-04-29T14:20:39.825Z,1.40
2023-04-29T14:23:07.083Z,1.00
2023-04-29T14:25:34.372Z,1.10
2023-04-29T14:28:01.773Z,0.88
2023-04-29T14:30:29.060Z,1.33
2023-04-29T14:32:56.470Z,1.08
2023-04-29T14:35:23.881Z,1.05
2023-04-29T14:37:51.529Z,1.20
2023-04-29T14:40:18.765Z,2.00
2023-04-29T14:42:46.006Z,0.93
2023-04-29T14:45:13.376Z,0.80
2023-04-29T14:47:40.717Z,0.98
2023-04-29T14:50:09.263Z,0.80
2023-04-29T14:52:36.724Z,0.77
2023-04-29T14:55:04.583Z,1.10
2023-04-29T14:57:31.874Z,1.65
2023-04-29T14:59:59.191Z,1.00
2023-04-29T15:02:26.823Z,1.15
2023-04-29T15:04:54.993Z,0.93
2023-04-29T15:07:23.066Z,1.10
2023-04-29T15:09:50.960Z,0.93
2023-04-29T15:12:20.105Z,1.17
2023-04-29T15:14:47.694Z,1.50
2023-04-29T15:17:15.018Z,1.30
2023-04-29T15:19:42.396Z,1.20
2023-04-29T15:22:09.718Z,1.08
2023-04-29T15:24:37.309Z,1.05
2023-04-29T15:27:04.702Z,1.20
2023-04-29T15:29:34.400Z,1.38
2023-04-29T15:32:01.971Z,1.20
2023-04-29T15:34:29.302Z,2.58
2023-04-29T15:36:57.054Z,2.38
2023-04-29T15:39:24.519Z,2.65
2023-04-29T15:41:53.711Z,9.40
2023-04-29T15:44:21.089Z,103.07
2023-04-29T15:46:48.706Z,129.48
2023-04-29T15:49:16.028Z,44.95
2023-04-29T15:51:43.198Z,55.20
2023-04-29T15:54:10.726Z,19.13
2023-04-29T15:56:38.884Z,2.63
2023-04-29T15:59:06.537Z,4.43
2023-04-29T16:01:36.201Z,2.20
2023-04-29T16:04:03.958Z,2.58
2023-04-29T16:06:31.367Z,2.63
2023-04-29T16:08:58.854Z,2.78
2023-04-29T16:11:26.410Z,2.05
2023-04-29T16:13:54.050Z,2.80
2023-04-29T16:16:21.964Z,2.58
2023-04-29T16:18:49.489Z,2.97
2023-04-29T16:21:17.603Z,2.20
2023-04-29T16:23:45.073Z,2.88
2023-04-29T16:26:12.638Z,2.20
2023-04-29T16:28:40.731Z,3.15
2023-04-29T16:31:07.966Z,2.78
2023-04-29T16:33:35.301Z,2.70
2023-04-29T16:36:03.139Z,2.40
2023-04-29T16:38:30.515Z,2.53
2023-04-29T16:40:58.029Z,3.00
2023-04-29T16:43:25.319Z,3.13
2023-04-29T16:45:52.640Z,2.78
2023-04-29T16:51:08.693Z,3.10
2023-04-29T16:53:36.809Z,3.22
2023-04-29T16:56:04.420Z,3.00
2023-04-29T16:58:31.773Z,3.47
2023-04-29T17:00:59.248Z,2.85
2023-04-29T17:03:26.549Z,2.70
2023-04-29T17:05:53.963Z,2.53
2023-04-29T17:08:21.384Z,3.50
2023-04-29T17:10:48.654Z,3.17
2023-04-29T17:13:16.501Z,3.53
2023-04-29T17:15:43.861Z,4.20
2023-04-29T17:18:11.334Z,3.38
2023-04-29T17:20:39.153Z,3.75
2023-04-29T17:23:06.554Z,4.57
2023-04-29T17:25:33.799Z,3.38
2023-04-29T17:28:01.229Z,5.63
2023-04-29T17:30:28.723Z,4.75
2023-04-29T17:32:56.231Z,3.67
2023-04-29T17:35:23.537Z,4.22
2023-04-29T17:37:50.869Z,4.60
2023-04-29T17:40:18.538Z,4.15
2023-04-29T17:42:45.938Z,4.28
2023-04-29T17:45:13.395Z,4.10
2023-04-29T17:47:40.644Z,5.50
2023-04-29T17:50:08.478Z,4.45
2023-04-29T17:52:36.119Z,4.75
2023-04-29T17:55:03.706Z,4.22
2023-04-29T17:57:31.189Z,4.32
2023-04-29T17:59:58.510Z,4.50
2023-04-29T18:02:26.002Z,5.10
2023-04-29T18:04:54.078Z,4.53
2023-04-29T18:07:21.375Z,4.15
2023-04-29T18:09:48.653Z,4.65
2023-04-29T18:12:16.005Z,5.30
2023-04-29T18:14:43.483Z,5.85
2023-04-29T18:17:10.896Z,5.35
2023-04-29T18:19:38.145Z,5.45
2023-04-29T18:22:06.310Z,6.45
2023-04-29T18:24:33.787Z,7.97
2023-04-29T18:27:02.399Z,8.20
2023-04-29T18:29:29.676Z,7.55
2023-04-29T18:31:57.143Z,7.55
2023-04-29T18:34:24.546Z,7.13
2023-04-29T18:36:52.328Z,8.70
2023-04-29T18:39:19.788Z,7.50
2023-04-29T18:41:47.113Z,7.22
2023-04-29T18:44:14.441Z,7.30
2023-04-29T18:46:41.854Z,7.80
2023-04-29T18:49:11.825Z,7.68
2023-04-29T18:51:40.575Z,7.28
2023-04-29T18:54:08.107Z,7.15
2023-04-29T18:56:36.830Z,8.23
2023-04-29T18:59:05.574Z,7.88
2023-04-29T19:01:33.017Z,7.53
2023-04-29T19:04:04.578Z,8.00
2023-04-29T19:06:32.705Z,8.38
2023-04-29T19:09:00.793Z,7.65
2023-04-29T19:11:28.291Z,7.60
2023-04-29T19:13:56.054Z,8.27
2023-04-29T19:16:25.118Z,8.02
2023-04-29T19:18:52.832Z,8.95
2023-04-29T19:21:20.861Z,8.73
2023-04-29T19:23:48.248Z,8.73
2023-04-29T19:26:15.935Z,8.65
2023-04-29T19:28:43.361Z,9.57
2023-04-29T19:31:11.838Z,6.85
2023-04-29T19:33:39.404Z,7.68
2023-04-29T19:36:07.638Z,9.68
2023-04-29T19:38:35.058Z,10.35
2023-04-29T19:41:02.556Z,9.50
2023-04-29T19:43:30.152Z,10.60
2023-04-29T19:45:57.823Z,9.50
2023-04-29T19:48:25.264Z,9.10
2023-04-29T19:50:52.907Z,9.77
2023-04-29T19:53:20.379Z,8.65
2023-04-29T19:55:49.481Z,8.18
2023-04-29T19:58:18.754Z,8.40
2023-04-29T20:00:46.391Z,10.10
2023-04-29T20:03:13.745Z,10.45
2023-04-29T20:05:41.899Z,8.85
2023-04-29T20:08:09.415Z,6.05
2023-04-29T20:10:37.029Z,3.50
2023-04-29T20:13:04.431Z,2.80
2023-04-29T20:15:31.676Z,2.10
2023-04-29T20:17:59.174Z,3.35
2023-04-29T20:20:26.999Z,3.63
2023-04-29T20:22:58.165Z,2.90
2023-04-29T20:25:25.953Z,3.40
2023-04-29T20:27:54.114Z,2.80
2023-04-29T20:30:21.827Z,2.83
2023-04-29T20:32:49.173Z,3.45
2023-04-29T20:35:17.042Z,3.80
2023-04-29T20:37:44.685Z,4.15
2023-04-29T20:40:12.335Z,4.47
2023-04-29T20:42:39.998Z,5.07
2023-04-29T20:45:08.460Z,4.97
2023-04-29T20:47:35.728Z,5.18
2023-04-29T20:50:04.811Z,5.93
2023-04-29T20:52:32.318Z,5.30
2023-04-29T20:55:00.567Z,6.30
2023-04-29T20:57:28.160Z,6.43
2023-04-29T20:59:55.963Z,6.60
2023-04-29T21:02:23.568Z,7.35
2023-04-29T21:04:51.141Z,6.85
2023-04-29T21:07:18.362Z,6.93
2023-04-29T21:09:46.185Z,6.78
2023-04-29T21:12:14.955Z,6.85
2023-04-29T21:14:42.834Z,6.93
2023-04-29T21:17:10.409Z,8.05
2023-04-29T21:19:37.870Z,7.55
2023-04-29T21:22:05.696Z,7.57
2023-04-29T21:24:32.913Z,7.88
2023-04-29T21:27:00.196Z,7.30
2023-04-29T21:29:27.474Z,8.10
2023-04-29T21:31:54.907Z,8.15
2023-04-29T21:34:22.172Z,8.00
2023-04-29T21:36:49.397Z,7.25
2023-04-29T21:39:16.819Z,8.48
2023-04-29T21:41:44.303Z,8.20
2023-04-29T21:44:13.209Z,9.45
2023-04-29T21:46:40.666Z,9.50
2023-04-29T21:49:08.611Z,9.68
2023-04-29T21:51:36.195Z,10.68
2023-04-29T21:54:08.544Z,10.07
2023-04-29T21:56:36.357Z,9.52
2023-04-29T21:59:04.012Z,9.57
2023-04-29T22:01:48.381Z,10.65
2023-04-29T22:04:16.992Z,10.90
2023-04-29T22:06:44.295Z,10.95
2023-04-29T22:09:11.628Z,11.60
2023-04-29T22:11:39.211Z,11.25
2023-04-29T22:14:06.774Z,11.73
2023-04-29T22:16:36.004Z,10.93
2023-04-29T22:19:04.588Z,12.55
2023-04-29T22:21:31.888Z,12.45
2023-04-29T22:23:59.510Z,11.43
2023-04-29T22:26:26.918Z,12.43
2023-04-29T22:28:54.984Z,12.63
2023-04-29T22:31:22.319Z,11.77
2023-04-29T22:33:49.613Z,12.70
2023-04-29T22:36:16.980Z,12.45
2023-04-29T22:38:44.372Z,11.77
2023-04-29T22:41:11.933Z,11.30
2023-04-29T22:43:39.113Z,10.32
2023-04-29T22:46:06.369Z,11.65
2023-04-29T22:48:33.562Z,9.65
2023-04-29T22:51:01.096Z,10.52
2023-04-29T22:53:28.420Z,11.55
2023-04-29T22:55:58.623Z,10.60
2023-04-29T22:58:26.756Z,11.73
2023-04-29T23:00:59.283Z,11.00
2023-04-29T23:03:27.695Z,11.77
2023-04-29T23:05:59.713Z,11.40
2023-04-29T23:08:30.138Z,12.10
2023-04-29T23:10:57.446Z,11.82
2023-04-29T23:13:24.874Z,11.88
2023-04-29T23:15:57.347Z,12.23
2023-04-29T23:18:24.675Z,12.23
2023-04-29T23:20:51.946Z,13.02
2023-04-29T23:23:19.361Z,12.25
2023-04-29T23:25:46.854Z,12.93
2023-04-29T23:28:14.293Z,12.93
2023-04-29T23:30:41.565Z,14.77
2023-04-29T23:33:09.210Z,13.65
2023-04-29T23:35:36.738Z,13.75
2023-04-29T23:38:03.953Z,13.38
2023-04-29T23:40:31.846Z,14.38
2023-04-29T23:42:59.179Z,14.07
2023-04-29T23:45:26.351Z,14.82
2023-04-29T23:47:53.602Z,14.18
2023-04-29T23:50:20.891Z,15.77
2023-04-29T23:52:48.168Z,16.63
2023-04-29T23:55:15.438Z,16.88
2023-04-29T23:57:42.732Z,15.75
